createdAt,value
2023-04-09T00:01:02.958Z,-23377.66
2023-04-09T00:03:05.864Z,-23379.88
2023-04-09T00:05:09.159Z,-23378.31
2023-04-09T00:07:11.932Z,-23379.88
2023-04-09T00:09:14.740Z,-23379.56
2023-04-09T00:11:17.537Z,-23379.56
2023-04-09T00:13:31.934Z,-23378.31
2023-04-09T00:15:41.724Z,-23382.13
2023-04-09T00:17:44.451Z,-23380.22
2023-04-09T00:19:47.180Z,-23380.22
2023-04-09T00:21:49.850Z,-23377.97
2023-04-09T00:23:52.527Z,-23378.94
2023-04-09T00:25:55.209Z,-23380.84
2023-04-09T00:27:58.154Z,-23378.94
2023-04-09T00:30:02.235Z,-23378.94
2023-04-09T00:32:05.032Z,-23377.19
2023-04-09T00:34:07.739Z,-23378.31
2023-04-09T00:36:10.450Z,-23379.25
2023-04-09T00:38:13.214Z,-23380.22
2023-04-09T00:40:16.261Z,-23378.63
2023-04-09T00:42:18.969Z,-23375.75
2023-04-09T00:44:21.654Z,-23376.41
2023-04-09T00:46:26.037Z,-23375.13
2023-04-09T00:48:28.937Z,-23375.44
2023-04-09T00:50:31.666Z,-23382.59
2023-04-09T00:52:34.860Z,-23377.34
2023-04-09T00:54:37.875Z,-23377.97
2023-04-09T00:56:41.404Z,-23376.72
2023-04-09T00:58:44.250Z,-23379.25
2023-04-09T01:00:47.008Z,-23379.09
2023-04-09T01:02:52.885Z,-23379.56
2023-04-09T01:04:55.993Z,-23377.97
2023-04-09T01:07:04.893Z,-23377.66
2023-04-09T01:09:15.734Z,-23377.34
2023-04-09T01:11:32.496Z,-23376.41
2023-04-09T01:13:43.591Z,-23376.41
2023-04-09T01:15:50.460Z,-23375.44
2023-04-09T01:18:06.303Z,-23377.66
2023-04-09T01:20:13.090Z,-23375.59
2023-04-09T01:22:25.696Z,-23376.06
2023-04-09T01:24:42.716Z,-23379.56
2023-04-09T01:26:58.326Z,-23380.06
2023-04-09T01:29:06.450Z,-23376.88
2023-04-09T01:31:13.981Z,-23372.09
2023-04-09T01:33:18.902Z,-23373.22
2023-04-09T01:35:22.527Z,-23377.50
2023-04-09T01:37:26.464Z,-23376.88
2023-04-09T01:39:30.010Z,-23371.63
2023-04-09T01:41:35.361Z,-23374.00
2023-04-09T01:43:39.168Z,-23372.91
2023-04-09T01:45:45.325Z,-23375.13
2023-04-09T01:47:48.692Z,-23374.50
2023-04-09T01:49:52.666Z,-23374.16
2023-04-09T01:51:55.608Z,-23374.50
2023-04-09T01:53:58.565Z,-23375.13
2023-04-09T01:56:02.100Z,-23376.56
2023-04-09T01:58:04.883Z,-23373.38
2023-04-09T02:00:09.344Z,-23374.50
2023-04-09T02:02:19.863Z,-23375.59
2023-04-09T02:04:25.814Z,-23373.69
2023-04-09T02:06:35.828Z,-23376.22
2023-04-09T02:08:38.885Z,-23379.88
2023-04-09T02:10:41.899Z,-23372.56
2023-04-09T02:12:49.990Z,-23373.06
2023-04-09T02:14:54.316Z,-23370.81
2023-04-09T02:16:57.813Z,-23375.44
2023-04-09T02:19:02.135Z,-23377.50
2023-04-09T02:21:05.866Z,-23377.34
2023-04-09T02:23:08.525Z,-23374.63
2023-04-09T02:25:11.245Z,-23375.44
2023-04-09T02:27:13.916Z,-23376.88
2023-04-09T02:29:16.685Z,-23371.78
2023-04-09T02:31:19.493Z,-23374.63
2023-04-09T02:33:22.476Z,-23371.94
2023-04-09T02:35:26.679Z,-23367.81
2023-04-09T02:37:29.388Z,-23368.75
2023-04-09T02:39:32.021Z,-23372.25
2023-04-09T02:41:34.784Z,-23369.56
2023-04-09T02:43:37.957Z,-23372.91
2023-04-09T02:45:40.707Z,-23373.84
2023-04-09T02:47:43.426Z,-23372.41
2023-04-09T02:49:46.233Z,-23371.00
2023-04-09T02:51:50.351Z,-23374.81
2023-04-09T02:53:53.054Z,-23370.66
2023-04-09T02:55:55.763Z,-23370.03
2023-04-09T02:57:58.462Z,-23370.66
2023-04-09T03:00:01.159Z,-23366.38
2023-04-09T03:02:04.063Z,-23369.41
2023-04-09T03:04:06.924Z,-23370.66
2023-04-09T03:06:09.747Z,-23368.13
2023-04-09T03:08:13.969Z,-23369.41
2023-04-09T03:10:16.709Z,-23368.28
2023-04-09T03:12:19.464Z,-23372.91
2023-04-09T03:14:22.180Z,-23369.06
2023-04-09T03:16:25.992Z,-23367.97
2023-04-09T03:18:28.909Z,-23367.50
2023-04-09T03:20:31.639Z,-23365.25
2023-04-09T03:22:37.194Z,-23367.16
2023-04-09T03:24:41.288Z,-23365.25
2023-04-09T03:26:44.133Z,-23367.00
2023-04-09T03:28:46.904Z,-23366.06
2023-04-09T03:30:49.708Z,-23366.84
2023-04-09T03:32:52.490Z,-23366.22
2023-04-09T03:34:55.328Z,-23363.34
2023-04-09T03:36:58.954Z,-23364.78
2023-04-09T03:39:01.861Z,-23365.25
2023-04-09T03:41:06.071Z,-23366.84
2023-04-09T03:43:08.773Z,-23364.47
2023-04-09T03:45:12.057Z,-23367.50
2023-04-09T03:47:14.705Z,-23364.63
2023-04-09T03:49:17.386Z,-23363.03
2023-04-09T03:51:20.118Z,-23364.00
2023-04-09T03:53:22.795Z,-23363.34
2023-04-09T03:55:25.474Z,-23362.41
2023-04-09T03:57:29.503Z,-23362.25
2023-04-09T03:59:32.237Z,-23362.06
2023-04-09T04:01:35.124Z,-23361.44
2023-04-09T04:03:38.203Z,-23361.94
2023-04-09T04:05:41.182Z,-23357.31
2023-04-09T04:07:44.972Z,-23357.47
2023-04-09T04:09:47.663Z,-23355.41
2023-04-09T04:11:50.334Z,-23356.34
2023-04-09T04:13:55.800Z,-23356.50
2023-04-09T04:15:58.732Z,-23361.44
2023-04-09T04:18:01.471Z,-23364.00
2023-04-09T04:20:04.281Z,-23357.47
2023-04-09T04:22:06.981Z,-23354.75
2023-04-09T04:24:09.714Z,-23357.63
2023-04-09T04:26:12.572Z,-23356.84
2023-04-09T04:28:15.346Z,-23360.50
2023-04-09T04:30:19.570Z,-23357.94
2023-04-09T04:32:22.596Z,-23360.16
2023-04-09T04:34:25.384Z,-23356.03
2023-04-09T04:36:28.058Z,-23355.72
2023-04-09T04:38:30.747Z,-23356.50
2023-04-09T04:40:33.429Z,-23353.97
2023-04-09T04:42:36.161Z,-23355.41
2023-04-09T04:44:38.826Z,-23359.22
2023-04-09T04:46:42.911Z,-23360.34
2023-04-09T04:48:45.576Z,-23357.00
2023-04-09T04:50:48.317Z,-23358.25
2023-04-09T04:52:51.052Z,-23360.34
2023-04-09T04:54:53.836Z,-23359.06
2023-04-09T04:56:56.941Z,-23360.50
2023-04-09T04:58:59.617Z,-23364.00
2023-04-09T05:01:02.305Z,-23361.59
2023-04-09T05:03:07.004Z,-23363.19
2023-04-09T05:05:10.017Z,-23363.50
2023-04-09T05:07:12.754Z,-23363.34
2023-04-09T05:09:15.658Z,-23361.75
2023-04-09T05:11:18.316Z,-23367.50
2023-04-09T05:13:20.993Z,-23365.09
2023-04-09T05:15:23.696Z,-23364.94
2023-04-09T05:17:26.414Z,-23361.75
2023-04-09T05:19:30.543Z,-23361.59
2023-04-09T05:21:33.256Z,-23361.44
2023-04-09T05:23:35.914Z,-23360.81
2023-04-09T05:25:38.635Z,-23360.50
2023-04-09T05:27:41.469Z,-23361.28
2023-04-09T05:29:44.148Z,-23361.59
2023-04-09T05:31:46.834Z,-23363.19
2023-04-09T05:33:49.614Z,-23364.63
2023-04-09T05:35:53.700Z,-23368.13
2023-04-09T05:37:56.946Z,-23371.31
2023-04-09T05:39:59.666Z,-23370.03
2023-04-09T05:42:02.452Z,-23373.53
2023-04-09T05:44:05.764Z,-23376.22
2023-04-09T05:46:08.430Z,-23377.19
2023-04-09T05:48:11.246Z,-23378.31
2023-04-09T05:50:14.047Z,-23380.69
2023-04-09T05:52:18.065Z,-23386.41
2023-04-09T05:54:20.746Z,-23374.63
2023-04-09T05:56:23.634Z,-23376.72
2023-04-09T05:58:27.363Z,-23384.34
2023-04-09T06:00:30.156Z,-23389.09
2023-04-09T06:02:32.951Z,-23394.34
2023-04-09T06:04:35.834Z,-23392.44
2023-04-09T06:06:39.614Z,-23401.50
2023-04-09T06:08:44.934Z,-23402.13
2023-04-09T06:10:47.616Z,-23391.00
2023-04-09T06:12:50.495Z,-23388.47
2023-04-09T06:14:53.340Z,-23382.59
2023-04-09T06:16:56.213Z,-23392.13
2023-04-09T06:18:58.914Z,-23389.91
2023-04-09T06:21:05.240Z,-23397.53
2023-04-09T06:23:08.054Z,-23402.44
2023-04-09T06:25:12.246Z,-23398.00
2023-04-09T06:27:15.006Z,-23404.69
2023-04-09T06:29:17.911Z,-23407.22
2023-04-09T06:31:20.599Z,-23407.84
2023-04-09T06:33:23.616Z,-23404.03
2023-04-09T06:35:26.352Z,-23400.53
2023-04-09T06:37:29.010Z,-23405.78
2023-04-09T06:39:32.956Z,-23402.13
2023-04-09T06:41:37.118Z,-23413.88
2023-04-09T06:43:39.844Z,-23419.59
2023-04-09T06:45:42.647Z,-23441.84
2023-04-09T06:47:45.427Z,-23486.25
2023-04-09T06:49:48.079Z,-23458.66
2023-04-09T06:51:51.989Z,-23484.97
2023-04-09T06:53:55.089Z,-23458.34
2023-04-09T06:55:58.067Z,-23453.56
2023-04-09T06:58:02.777Z,-23475.63
2023-04-09T07:00:06.211Z,-23460.56
2023-04-09T07:02:09.301Z,-23467.69
2023-04-09T07:04:12.202Z,-23458.03
2023-04-09T07:06:14.893Z,-23488.78
2023-04-09T07:08:17.602Z,-23481.31
2023-04-09T07:10:20.330Z,-23494.00
2023-04-09T07:12:29.314Z,-23505.09
2023-04-09T07:14:33.365Z,-23512.84
2023-04-09T07:16:36.154Z,-23521.41
2023-04-09T07:18:38.944Z,-23552.59
2023-04-09T07:20:41.553Z,-23549.75
2023-04-09T07:22:44.300Z,-23541.53
2023-04-09T07:24:47.112Z,-23566.66
2023-04-09T07:26:52.050Z,-23545.47
2023-04-09T07:28:56.096Z,-23509.53
2023-04-09T07:31:02.856Z,-23518.25
2023-04-09T07:33:05.610Z,-23550.84
2023-04-09T07:35:11.278Z,-23561.28
2023-04-09T07:37:14.089Z,-23523.78
2023-04-09T07:39:17.370Z,-23521.88
2023-04-09T07:41:20.891Z,-23599.38
2023-04-09T07:43:23.577Z,-23597.66
2023-04-09T07:45:26.489Z,-23600.97
2023-04-09T07:47:31.300Z,-23579.47
2023-04-09T07:49:34.176Z,-23576.78
2023-04-09T07:51:36.837Z,-23597.66
2023-04-09T07:53:39.576Z,-23591.34
2023-04-09T07:55:42.448Z,-23605.06
2023-04-09T07:57:45.352Z,-23608.22
2023-04-09T07:59:48.086Z,-23586.91
2023-04-09T08:01:51.056Z,-23590.38
2023-04-09T08:03:55.316Z,-23578.38
2023-04-09T08:05:58.087Z,-23609.03
2023-04-09T08:08:00.785Z,-23613.44
2023-04-09T08:10:03.536Z,-23613.13
2023-04-09T08:12:06.430Z,-23630.97
2023-04-09T08:14:12.828Z,-23634.59
2023-04-09T08:16:15.522Z,-23648.47
2023-04-09T08:18:18.210Z,-23642.16
2023-04-09T08:20:22.404Z,-23588.31
2023-04-09T08:22:25.075Z,-23632.69
2023-04-09T08:24:28.202Z,-23639.50
2023-04-09T08:26:30.970Z,-23644.22
2023-04-09T08:28:33.672Z,-23634.44
2023-04-09T08:30:36.341Z,-23611.72
2023-04-09T08:32:39.048Z,-23615.03
2023-04-09T08:34:41.798Z,-23615.66
2023-04-09T08:36:49.767Z,-23635.22
2023-04-09T08:38:53.267Z,-23605.38
2023-04-09T08:40:56.069Z,-23587.69
2023-04-09T08:43:00.609Z,-23637.28
2023-04-09T08:45:05.180Z,-23603.97
2023-04-09T08:47:10.169Z,-23602.22
2023-04-09T08:49:13.323Z,-23613.59
2023-04-09T08:51:16.418Z,-23625.44
2023-04-09T08:53:22.271Z,-23624.50
2023-04-09T08:55:25.294Z,-23647.06
2023-04-09T08:57:28.158Z,-23627.50
2023-04-09T08:59:31.233Z,-23657.00
2023-04-09T09:01:34.063Z,-23639.34
2023-04-09T09:03:55.159Z,-23682.53
2023-04-09T09:05:58.921Z,-23648.78
2023-04-09T09:08:02.264Z,-23646.28
2023-04-09T09:10:07.404Z,-23652.09
2023-04-09T09:12:10.152Z,-23673.22
2023-04-09T09:14:14.079Z,-23680.00
2023-04-09T09:16:17.943Z,-23598.59
2023-04-09T09:18:20.837Z,-23652.25
2023-04-09T09:20:24.375Z,-23648.31
2023-04-09T09:22:27.238Z,-23651.47
2023-04-09T09:24:30.367Z,-23670.56
2023-04-09T09:26:39.582Z,-23642.16
2023-04-09T09:28:42.636Z,-23630.97
2023-04-09T09:30:49.184Z,-23676.22
2023-04-09T09:32:55.670Z,-23652.25
2023-04-09T09:35:06.606Z,-23629.06
2023-04-09T09:37:27.924Z,-23687.88
2023-04-09T09:39:44.294Z,-23621.34
2023-04-09T09:41:48.854Z,-23671.81
2023-04-09T09:43:51.950Z,-23571.72
2023-04-09T09:45:54.969Z,-23625.75
2023-04-09T09:47:57.715Z,-23627.66
2023-04-09T09:50:00.565Z,-23671.50
2023-04-09T09:52:06.421Z,-23645.00
2023-04-09T09:54:10.722Z,-23655.28
2023-04-09T09:56:17.911Z,-23687.25
2023-04-09T09:58:27.430Z,-23706.63
2023-04-09T10:00:33.274Z,-23632.06
2023-04-09T10:02:45.135Z,-23664.56
2023-04-09T10:04:50.611Z,-23680.47
2023-04-09T10:06:53.977Z,-23684.25
2023-04-09T10:08:59.213Z,-23705.53
2023-04-09T10:11:02.364Z,-23688.69
2023-04-09T10:13:08.193Z,-23669.47
2023-04-09T10:15:12.990Z,-23621.66
2023-04-09T10:17:16.181Z,-23677.66
2023-04-09T10:19:19.467Z,-23643.44
2023-04-09T10:21:32.590Z,-23601.13
2023-04-09T10:23:39.559Z,-23584.38
2023-04-09T10:25:42.727Z,-23544.53
2023-04-09T10:27:48.312Z,-23549.28
2023-04-09T10:29:52.829Z,-23593.22
2023-04-09T10:32:05.630Z,-23616.59
2023-04-09T10:34:10.762Z,-23591.00
2023-04-09T10:36:14.204Z,-23579.31
2023-04-09T10:38:16.999Z,-23575.84
2023-04-09T10:40:21.649Z,-23603.19
2023-04-09T10:42:30.246Z,-23594.03
2023-04-09T10:44:32.986Z,-23587.53
2023-04-09T10:46:37.379Z,-23580.59
2023-04-09T10:48:41.438Z,-23553.22
2023-04-09T10:50:45.329Z,-23520.31
2023-04-09T10:52:52.972Z,-23542.31
2023-04-09T10:54:55.914Z,-23545.31
2023-04-09T10:57:19.200Z,-23536.78
2023-04-09T10:59:21.842Z,-23525.06
2023-04-09T11:01:26.524Z,-23527.75
2023-04-09T11:03:30.623Z,-23563.50
2023-04-09T11:05:38.125Z,-23564.47
2023-04-09T11:07:46.148Z,-23551.16
2023-04-09T11:09:48.829Z,-23531.84
2023-04-09T11:11:53.863Z,-23535.66
2023-04-09T11:14:01.489Z,-23533.28
2023-04-09T11:16:07.003Z,-23533.13
2023-04-09T11:18:10.911Z,-23569.84
2023-04-09T11:20:14.571Z,-23557.19
2023-04-09T11:22:18.742Z,-23557.81
2023-04-09T11:24:21.503Z,-23544.69
2023-04-09T11:26:35.911Z,-23527.13
2023-04-09T11:28:42.291Z,-23524.25
2023-04-09T11:30:46.800Z,-23528.06
2023-04-09T11:32:50.131Z,-23533.59
2023-04-09T11:34:53.739Z,-23547.69
2023-04-09T11:36:58.927Z,-23567.47
2023-04-09T11:39:04.017Z,-23555.28
2023-04-09T11:41:06.820Z,-23545.47
2023-04-09T11:43:09.610Z,-23541.34
2023-04-09T11:45:13.112Z,-23536.94
2023-04-09T11:47:16.913Z,-23519.50
2023-04-09T11:49:19.647Z,-23517.78
2023-04-09T11:51:22.455Z,-23529.97
2023-04-09T11:53:31.776Z,-23542.94
2023-04-09T11:55:35.987Z,-23518.25
2023-04-09T11:57:41.644Z,-23514.75
2023-04-09T11:59:44.666Z,-23519.81
2023-04-09T12:01:51.191Z,-23525.22
2023-04-09T12:03:54.105Z,-23532.97
2023-04-09T12:05:56.970Z,-23550.38
2023-04-09T12:08:01.698Z,-23559.06
2023-04-09T12:10:06.194Z,-23566.81
2023-04-09T12:12:11.390Z,-23566.50
2023-04-09T12:14:16.144Z,-23579.63
2023-04-09T12:16:21.105Z,-23579.31
2023-04-09T12:18:24.370Z,-23580.91
2023-04-09T12:20:31.946Z,-23587.84
2023-04-09T12:22:36.129Z,-23572.69
2023-04-09T12:24:38.763Z,-23567.47
2023-04-09T12:26:41.431Z,-23564.13
2023-04-09T12:28:45.492Z,-23566.34
2023-04-09T12:30:49.120Z,-23591.66
2023-04-09T12:32:53.019Z,-23580.59
2023-04-09T12:34:55.817Z,-23552.75
2023-04-09T12:36:58.562Z,-23586.28
2023-04-09T12:39:01.563Z,-23597.50
2023-04-09T12:41:04.344Z,-23590.06
2023-04-09T12:43:07.099Z,-23566.34
2023-04-09T12:45:13.957Z,-23565.41
2023-04-09T12:47:16.658Z,-23557.34
2023-04-09T12:49:19.908Z,-23560.50
2023-04-09T12:51:22.973Z,-23566.66
2023-04-09T12:53:25.720Z,-23561.13
2023-04-09T12:55:28.905Z,-23559.06
2023-04-09T12:57:31.896Z,-23549.13
2023-04-09T12:59:34.636Z,-23571.72
2023-04-09T13:01:40.184Z,-23569.19
2023-04-09T13:03:44.263Z,-23561.13
2023-04-09T13:05:47.294Z,-23555.59
2023-04-09T13:07:50.009Z,-23558.91
2023-04-09T13:09:52.919Z,-23560.03
2023-04-09T13:11:56.008Z,-23562.25
2023-04-09T13:13:58.763Z,-23554.97
2023-04-09T13:16:02.143Z,-23558.44
2023-04-09T13:18:06.633Z,-23560.81
2023-04-09T13:20:10.374Z,-23579.63
2023-04-09T13:22:13.109Z,-23579.63
2023-04-09T13:24:15.835Z,-23595.13
2023-04-09T13:26:18.528Z,-23594.81
2023-04-09T13:28:21.336Z,-23596.53
2023-04-09T13:30:24.264Z,-23591.97
2023-04-09T13:32:27.071Z,-23607.13
2023-04-09T13:34:31.213Z,-23602.41
2023-04-09T13:36:33.991Z,-23593.84
2023-04-09T13:38:36.721Z,-23583.75
2023-04-09T13:40:39.403Z,-23582.47
2023-04-09T13:42:42.068Z,-23595.44
2023-04-09T13:44:45.563Z,-23604.91
2023-04-09T13:46:48.294Z,-23601.13
2023-04-09T13:48:51.133Z,-23597.34
2023-04-09T13:50:55.380Z,-23601.75
2023-04-09T13:52:58.173Z,-23606.81
2023-04-09T13:55:01.236Z,-23607.44
2023-04-09T13:57:04.566Z,-23623.56
2023-04-09T13:59:07.308Z,-23613.91
2023-04-09T14:01:10.418Z,-23609.03
2023-04-09T14:03:14.229Z,-23612.34
2023-04-09T14:05:17.097Z,-23605.22
2023-04-09T14:07:21.216Z,-23610.13
2023-04-09T14:09:24.274Z,-23619.44
2023-04-09T14:11:27.019Z,-23608.69
2023-04-09T14:13:30.408Z,-23603.34
2023-04-09T14:15:33.379Z,-23621.97
2023-04-09T14:17:36.264Z,-23616.28
2023-04-09T14:19:39.170Z,-23608.38
2023-04-09T14:21:42.059Z,-23615.66
2023-04-09T14:23:46.334Z,-23601.59
2023-04-09T14:25:49.000Z,-23605.53
2023-04-09T14:27:52.119Z,-23604.13
2023-04-09T14:29:54.797Z,-23616.59
2023-04-09T14:31:57.692Z,-23607.13
2023-04-09T14:34:00.386Z,-23602.06
2023-04-09T14:36:03.101Z,-23597.34
2023-04-09T14:38:05.847Z,-23598.13
2023-04-09T14:40:10.683Z,-23597.34
2023-04-09T14:42:14.296Z,-23591.34
2023-04-09T14:44:17.034Z,-23597.00
2023-04-09T14:46:20.316Z,-23593.84
2023-04-09T14:48:23.021Z,-23595.13
2023-04-09T14:50:25.786Z,-23596.38
2023-04-09T14:52:30.318Z,-23592.28
2023-04-09T14:54:33.805Z,-23599.22
2023-04-09T14:56:37.991Z,-23599.53
2023-04-09T14:58:40.651Z,-23603.03
2023-04-09T15:00:44.864Z,-23602.69
2023-04-09T15:02:48.195Z,-23600.66
2023-04-09T15:04:51.187Z,-23606.97
2023-04-09T15:06:53.888Z,-23591.34
2023-04-09T15:08:56.584Z,-23591.34
2023-04-09T15:10:59.369Z,-23590.06
2023-04-09T15:13:03.405Z,-23591.00
2023-04-09T15:15:08.085Z,-23591.00
2023-04-09T15:17:10.810Z,-23599.69
2023-04-09T15:19:13.464Z,-23595.13
2023-04-09T15:21:16.092Z,-23602.06
2023-04-09T15:23:18.788Z,-23599.38
2023-04-09T15:25:21.556Z,-23601.44
2023-04-09T15:27:24.281Z,-23611.22
2023-04-09T15:29:28.422Z,-23605.22
2023-04-09T15:31:31.419Z,-23600.19
2023-04-09T15:33:34.179Z,-23595.44
2023-04-09T15:35:37.743Z,-23595.75
2023-04-09T15:37:40.546Z,-23580.44
2023-04-09T15:39:43.606Z,-23569.66
2023-04-09T15:41:46.537Z,-23567.31
2023-04-09T15:43:49.187Z,-23566.19
2023-04-09T15:45:53.307Z,-23569.84
2023-04-09T15:47:56.071Z,-23574.25
2023-04-09T15:49:59.336Z,-23575.38
2023-04-09T15:52:02.003Z,-23578.06
2023-04-09T15:54:04.946Z,-23581.84
2023-04-09T15:56:09.786Z,-23587.53
2023-04-09T15:58:13.669Z,-23586.91
2023-04-09T16:00:16.521Z,-23584.53
2023-04-09T16:02:20.775Z,-23585.66
2023-04-09T16:04:23.530Z,-23575.53
2023-04-09T16:06:26.297Z,-23575.38
2023-04-09T16:08:28.962Z,-23579.00
2023-04-09T16:10:31.862Z,-23574.09
2023-04-09T16:12:34.539Z,-23574.25
2023-04-09T16:14:37.852Z,-23570.78
2023-04-09T16:16:40.785Z,-23571.88
2023-04-09T16:18:44.837Z,-23573.63
2023-04-09T16:20:47.595Z,-23576.78
2023-04-09T16:22:50.400Z,-23572.34
2023-04-09T16:24:53.142Z,-23571.56
2023-04-09T16:26:56.410Z,-23573.47
2023-04-09T16:29:02.952Z,-23574.56
2023-04-09T16:31:05.507Z,-23571.41
2023-04-09T16:33:08.741Z,-23570.16
2023-04-09T16:35:12.832Z,-23569.84
2023-04-09T16:37:15.665Z,-23572.03
2023-04-09T16:39:19.499Z,-23566.50
2023-04-09T16:41:22.180Z,-23562.56
2023-04-09T16:43:26.053Z,-23563.81
2023-04-09T16:45:30.002Z,-23566.34
2023-04-09T16:47:32.816Z,-23563.66
2023-04-09T16:49:35.498Z,-23571.25
2023-04-09T16:51:39.626Z,-23567.31
2023-04-09T16:53:42.305Z,-23566.97
2023-04-09T16:55:45.061Z,-23565.09
2023-04-09T16:57:47.707Z,-23562.88
2023-04-09T16:59:50.784Z,-23558.91
2023-04-09T17:01:53.654Z,-23557.81
2023-04-09T17:03:57.266Z,-23556.88
2023-04-09T17:06:00.059Z,-23556.88
2023-04-09T17:08:04.148Z,-23554.34
2023-04-09T17:10:08.241Z,-23554.81
2023-04-09T17:12:11.218Z,-23554.97
2023-04-09T17:14:14.045Z,-23553.69
2023-04-09T17:16:18.112Z,-23555.59
2023-04-09T17:18:20.856Z,-23553.53
2023-04-09T17:20:24.894Z,-23550.22
2023-04-09T17:22:27.688Z,-23548.97
2023-04-09T17:24:31.827Z,-23549.13
2023-04-09T17:26:34.688Z,-23548.63
2023-04-09T17:28:37.391Z,-23546.44
2023-04-09T17:30:40.099Z,-23543.56
2023-04-09T17:32:44.033Z,-23537.25
2023-04-09T17:34:48.127Z,-23539.16
2023-04-09T17:36:56.439Z,-23534.22
2023-04-09T17:38:59.166Z,-23532.50
2023-04-09T17:41:04.293Z,-23534.06
2023-04-09T17:43:08.046Z,-23535.34
2023-04-09T17:45:11.844Z,-23530.91
2023-04-09T17:47:14.654Z,-23530.28
2023-04-09T17:49:17.345Z,-23526.63
2023-04-09T17:51:20.829Z,-23526.47
2023-04-09T17:53:23.620Z,-23525.53
2023-04-09T17:55:26.326Z,-23523.31
2023-04-09T17:57:30.310Z,-23518.88
2023-04-09T17:59:34.352Z,-23521.72
2023-04-09T18:01:37.225Z,-23521.41
2023-04-09T18:03:40.705Z,-23517.28
2023-04-09T18:05:43.664Z,-23513.03
2023-04-09T18:07:46.494Z,-23514.44
2023-04-09T18:09:49.565Z,-23513.81
2023-04-09T18:11:56.235Z,-23511.44
2023-04-09T18:14:00.378Z,-23512.72
2023-04-09T18:16:03.161Z,-23509.06
2023-04-09T18:18:05.923Z,-23507.16
2023-04-09T18:20:09.278Z,-23506.38
2023-04-09T18:22:12.025Z,-23505.09
2023-04-09T18:24:14.716Z,-23505.72
2023-04-09T18:26:17.465Z,-23504.78
2023-04-09T18:28:20.151Z,-23505.91
2023-04-09T18:30:24.688Z,-23501.63
2023-04-09T18:32:27.422Z,-23498.28
2023-04-09T18:34:30.091Z,-23496.22
2023-04-09T18:36:32.842Z,-23495.75
2023-04-09T18:38:36.915Z,-23494.50
2023-04-09T18:40:42.292Z,-23490.69
2023-04-09T18:42:45.307Z,-23492.44
2023-04-09T18:44:47.954Z,-23488.78
2023-04-09T18:46:52.200Z,-23491.00
2023-04-09T18:48:55.272Z,-23488.47
2023-04-09T18:50:59.032Z,-23486.56
2023-04-09T18:53:03.377Z,-23484.97
2023-04-09T18:55:06.904Z,-23483.06
2023-04-09T18:57:09.538Z,-23483.06
2023-04-09T18:59:12.298Z,-23483.06
2023-04-09T19:01:15.383Z,-23479.44
2023-04-09T19:03:20.092Z,-23479.44
2023-04-09T19:05:23.014Z,-23475.78
2023-04-09T19:07:25.839Z,-23476.41
2023-04-09T19:09:28.777Z,-23472.59
2023-04-09T19:11:31.619Z,-23471.19
2023-04-09T19:13:34.328Z,-23471.34
2023-04-09T19:15:38.391Z,-23468.97
2023-04-09T19:17:41.482Z,-23467.84
2023-04-09T19:19:45.507Z,-23463.88
2023-04-09T19:21:48.212Z,-23464.84
2023-04-09T19:23:50.959Z,-23465.00
2023-04-09T19:25:55.217Z,-23464.03
2023-04-09T19:27:57.986Z,-23460.09
2023-04-09T19:30:01.151Z,-23459.59
2023-04-09T19:32:03.960Z,-23459.44
2023-04-09T19:34:07.054Z,-23453.72
2023-04-09T19:36:12.927Z,-23453.72
2023-04-09T19:38:16.448Z,-23456.13
2023-04-09T19:40:19.324Z,-23454.84
2023-04-09T19:42:22.309Z,-23451.34
2023-04-09T19:44:25.072Z,-23450.88
2023-04-09T19:46:27.778Z,-23451.66
2023-04-09T19:48:30.640Z,-23450.41
2023-04-09T19:50:35.669Z,-23447.53
2023-04-09T19:52:41.245Z,-23447.06
2023-04-09T19:54:44.009Z,-23448.97
2023-04-09T19:56:46.713Z,-23444.06
2023-04-09T19:58:49.360Z,-23443.59
2023-04-09T20:00:52.310Z,-23444.38
2023-04-09T20:02:55.677Z,-23444.69
2023-04-09T20:04:58.591Z,-23442.31
2023-04-09T20:07:01.413Z,-23443.59
2023-04-09T20:09:05.707Z,-23440.25
2023-04-09T20:11:08.517Z,-23439.47
2023-04-09T20:13:11.324Z,-23442.47
2023-04-09T20:15:14.684Z,-23440.56
2023-04-09T20:17:19.792Z,-23442.94
2023-04-09T20:19:22.585Z,-23442.16
2023-04-09T20:21:25.320Z,-23439.59
2023-04-09T20:23:28.059Z,-23437.41
2023-04-09T20:25:35.051Z,-23439.59
2023-04-09T20:27:38.613Z,-23436.59
2023-04-09T20:29:41.304Z,-23435.47
2023-04-09T20:31:44.398Z,-23435.47
2023-04-09T20:33:47.216Z,-23435.97
2023-04-09T20:35:50.427Z,-23435.16
2023-04-09T20:37:54.851Z,-23434.53
2023-04-09T20:39:58.768Z,-23434.06
2023-04-09T20:42:02.895Z,-23431.69
2023-04-09T20:44:05.949Z,-23430.88
2023-04-09T20:46:08.756Z,-23427.53
2023-04-09T20:48:11.956Z,-23426.91
2023-04-09T20:50:14.805Z,-23427.38
2023-04-09T20:52:17.737Z,-23425.16
2023-04-09T20:54:22.740Z,-23423.88
2023-04-09T20:56:25.668Z,-23427.72
2023-04-09T20:58:29.801Z,-23427.06
2023-04-09T21:00:32.455Z,-23425.78
2023-04-09T21:02:35.654Z,-23420.56
2023-04-09T21:04:39.037Z,-23421.81
2023-04-09T21:06:41.858Z,-23419.59
2023-04-09T21:08:44.715Z,-23417.38
2023-04-09T21:10:47.549Z,-23417.06
2023-04-09T21:12:50.320Z,-23414.03
2023-04-09T21:14:54.590Z,-23415.16
2023-04-09T21:16:57.462Z,-23414.53
2023-04-09T21:19:06.813Z,-23410.56
2023-04-09T21:21:09.777Z,-23411.03
2023-04-09T21:23:12.779Z,-23410.88
2023-04-09T21:25:15.810Z,-23409.44
2023-04-09T21:27:18.644Z,-23412.63
2023-04-09T21:29:21.636Z,-23409.75
2023-04-09T21:31:25.995Z,-23410.88
2023-04-09T21:33:30.008Z,-23407.53
2023-04-09T21:35:33.649Z,-23408.16
2023-04-09T21:37:37.513Z,-23412.13
2023-04-09T21:39:40.243Z,-23409.75
2023-04-09T21:41:42.992Z,-23409.44
2023-04-09T21:43:45.862Z,-23406.75
2023-04-09T21:45:48.702Z,-23405.31
2023-04-09T21:47:52.907Z,-23409.44
2023-04-09T21:49:56.534Z,-23407.22
2023-04-09T21:52:00.597Z,-23405.31
2023-04-09T21:54:04.993Z,-23403.09
2023-04-09T21:56:08.550Z,-23405.63
2023-04-09T21:58:11.894Z,-23402.13
2023-04-09T22:00:16.375Z,-23403.56
2023-04-09T22:02:19.589Z,-23398.16
2023-04-09T22:04:23.926Z,-23398.00
2023-04-09T22:06:27.080Z,-23400.06
2023-04-09T22:08:30.454Z,-23397.06
2023-04-09T22:10:33.234Z,-23394.66
2023-04-09T22:12:37.382Z,-23396.09
2023-04-09T22:14:41.790Z,-23394.81
2023-04-09T22:16:45.050Z,-23397.84
2023-04-09T22:18:48.019Z,-23392.75
2023-04-09T22:20:52.351Z,-23394.50
2023-04-09T22:22:55.264Z,-23391.97
2023-04-09T22:24:58.015Z,-23390.84
2023-04-09T22:27:01.460Z,-23390.06
2023-04-09T22:29:06.756Z,-23388.31
2023-04-09T22:31:09.765Z,-23388.78
2023-04-09T22:33:12.494Z,-23385.94
2023-04-09T22:35:18.083Z,-23382.28
2023-04-09T22:37:22.088Z,-23382.13
2023-04-09T22:39:24.962Z,-23382.91
2023-04-09T22:41:27.745Z,-23387.69
2023-04-09T22:43:30.628Z,-23386.56
2023-04-09T22:45:33.311Z,-23385.28
2023-04-09T22:47:36.110Z,-23385.44
2023-04-09T22:49:38.906Z,-23382.59
2023-04-09T22:51:42.602Z,-23378.31
2023-04-09T22:53:47.255Z,-23377.97
2023-04-09T22:55:51.728Z,-23373.84
2023-04-09T22:57:54.990Z,-23371.31
2023-04-09T22:59:57.839Z,-23373.84
2023-04-09T23:02:00.794Z,-23366.22
2023-04-09T23:04:03.647Z,-23367.00
2023-04-09T23:06:06.937Z,-23364.16
2023-04-09T23:08:09.975Z,-23363.84
2023-04-09T23:10:16.201Z,-23366.22
2023-04-09T23:12:19.004Z,-23365.56
2023-04-09T23:14:21.807Z,-23365.44
2023-04-09T23:16:24.635Z,-23366.06
2023-04-09T23:18:27.380Z,-23368.13
2023-04-09T23:20:30.410Z,-23366.22
2023-04-09T23:22:33.163Z,-23364.00
2023-04-09T23:24:35.914Z,-23364.94
2023-04-09T23:26:39.909Z,-23363.34
2023-04-09T23:28:42.720Z,-23366.53
2023-04-09T23:30:45.502Z,-23366.53
2023-04-09T23:32:48.959Z,-23367.81